EYVI/VNO METAR and TAF weather

Enter ICAO airport designator
Station Type Date Time Source
EYVI METAR 2019/02/21 15:50 UTC NOAA

EYVI 211550Z 36010KT CAVOK M03/M13 Q1019 R01/1///95 NOSIG


Station Type Date Time Source
EYVI Decoded METAR 2019/02/21 15:50 UTC NOAA

Vilnius, Lithuania (EYVI) 54-38N 025-06E 156M
Feb 21, 2019 - 10:50 AM EST / 2019.02.21 1550 UTC
Wind: from the N (360 degrees) at 12 MPH (10 KT):0
Visibility: greater than 7 mile(s):0
Temperature: 26 F (-3 C)
Windchill: 15 F (-9 C):1
Dew Point: 8 F (-13 C)
Relative Humidity: 45%
Pressure (altimeter): 30.09 in. Hg (1019 hPa)
ob: EYVI 211550Z 36010KT CAVOK M03/M13 Q1019 R01/1///95 NOSIG
cycle: 16

Station Type Date Time Source
EYVI TAF 2019/02/21 12:06 UTC NOAA

TAF EYVI 211100Z 2112/2212 36010KT CAVOK


Example: see airport list